Time;durP1;ratioP1;P1;durP2;ratioP2;P2;SDS_P1;SDS_P2;PMS_P1;PMS_P2;Temp;Humidity;BMP_temperature;BMP_pressure;BME280_temperature;BME280_humidity;BME280_pressure;Samples;Min_cycle;Max_cycle;Signal;HPM_P1;HPM_P2
2022/04/15 00:01:14;;;;;;;5.10;1.30;;;21.00;58.30;;;;;;5033645;28;20434;-58
2022/04/15 00:03:40;;;;;;;2.85;1.00;;;20.90;58.30;;;;;;5032910;28;20128;-57
2022/04/15 00:06:08;;;;;;;3.80;1.20;;;20.90;58.20;;;;;;5032812;28;20072;-58
2022/04/15 00:08:34;;;;;;;2.53;1.02;;;20.90;58.20;;;;;;5033493;28;20060;-57
2022/04/15 00:11:00;;;;;;;4.95;1.40;;;20.90;58.20;;;;;;5033153;28;20045;-58
2022/04/15 00:13:29;;;;;;;2.60;1.00;;;20.90;58.20;;;;;;5032576;28;20120;-57
2022/04/15 00:15:58;;;;;;;3.58;1.30;;;20.90;58.20;;;;;;5033093;28;20531;-57
2022/04/15 00:18:24;;;;;;;2.47;0.90;;;20.90;58.10;;;;;;5033223;28;20045;-57
2022/04/15 00:20:51;;;;;;;3.08;1.00;;;20.90;58.20;;;;;;5031772;28;20117;-57
2022/04/15 00:23:18;;;;;;;5.03;1.10;;;20.90;58.10;;;;;;5032964;28;20050;-57
2022/04/15 00:25:44;;;;;;;3.08;1.10;;;20.90;58.10;;;;;;5032881;28;20099;-57
2022/04/15 00:28:09;;;;;;;3.25;0.88;;;20.80;58.10;;;;;;5032243;28;20045;-57
2022/04/15 00:30:35;;;;;;;3.33;1.00;;;20.80;58.10;;;;;;5032906;28;20041;-58
2022/04/15 00:33:00;;;;;;;1.77;0.90;;;20.80;58.00;;;;;;5032568;28;20487;-57
2022/04/15 00:35:26;;;;;;;4.07;1.17;;;20.80;58.00;;;;;;5032138;28;20504;-57
2022/04/15 00:37:51;;;;;;;4.10;1.05;;;20.80;58.00;;;;;;5032760;28;20049;-57
2022/04/15 00:40:17;;;;;;;5.03;1.10;;;20.80;58.00;;;;;;5032163;28;20056;-57
2022/04/15 00:42:42;;;;;;;4.40;0.93;;;20.80;58.00;;;;;;5032635;28;20451;-57
2022/04/15 00:45:09;;;;;;;2.80;1.58;;;20.80;57.90;;;;;;5032900;28;20037;-57
2022/04/15 00:47:51;;;;;;;3.90;1.08;;;20.80;57.90;;;;;;5032164;28;20049;-57
2022/04/15 00:50:18;;;;;;;3.13;0.85;;;20.80;57.90;;;;;;5032737;28;20045;-57
2022/04/15 00:52:45;;;;;;;4.03;1.10;;;20.70;57.90;;;;;;5032596;28;20072;-58
2022/04/15 00:55:11;;;;;;;4.65;1.13;;;20.70;57.80;;;;;;5032031;28;20052;-58
2022/04/15 00:57:41;;;;;;;2.55;0.93;;;20.70;57.80;;;;;;5032576;28;20052;-57
2022/04/15 01:00:07;;;;;;;1.85;1.00;;;20.70;57.70;;;;;;5032105;28;20057;-57
2022/04/15 01:02:33;;;;;;;3.47;1.08;;;20.80;57.80;;;;;;5031683;28;20095;-58
2022/04/15 01:04:59;;;;;;;2.92;0.88;;;20.70;57.70;;;;;;5032168;28;20052;-58
2022/04/15 01:07:25;;;;;;;2.95;0.77;;;20.70;57.70;;;;;;5031460;28;20049;-58
2022/04/15 01:09:51;;;;;;;3.88;1.15;;;20.70;57.70;;;;;;5031639;28;20128;-58
2022/04/15 01:12:21;;;;;;;2.47;1.10;;;20.70;57.70;;;;;;5032509;28;20116;-58
2022/04/15 01:14:47;;;;;;;2.88;0.90;;;20.70;57.80;;;;;;5032400;28;20046;-57
2022/04/15 01:17:13;;;;;;;3.03;1.00;;;20.70;57.70;;;;;;5031753;28;20473;-58
2022/04/15 01:19:38;;;;;;;2.53;0.80;;;20.70;57.70;;;;;;5032218;28;20037;-57
2022/04/15 01:22:04;;;;;;;2.40;1.10;;;20.60;57.60;;;;;;5032558;28;20442;-58
2022/04/15 01:24:29;;;;;;;2.72;0.93;;;20.70;57.70;;;;;;5030609;28;20045;-58
2022/04/15 01:26:55;;;;;;;2.17;0.82;;;20.60;57.60;;;;;;5032348;28;20373;-58
2022/04/15 01:29:21;;;;;;;2.08;1.00;;;20.60;57.60;;;;;;5031530;28;20048;-58
2022/04/15 01:31:46;;;;;;;3.08;0.90;;;20.60;57.60;;;;;;5031576;28;20049;-58
2022/04/15 01:34:12;;;;;;;2.58;0.90;;;20.60;57.60;;;;;;5032090;28;20045;-58
2022/04/15 01:36:37;;;;;;;1.67;0.82;;;20.60;57.50;;;;;;5034102;28;20453;-58
2022/04/15 01:39:03;;;;;;;2.33;0.90;;;20.60;57.60;;;;;;5036046;28;20053;-57
2022/04/15 01:41:28;;;;;;;2.25;0.90;;;20.60;57.50;;;;;;5035043;28;20037;-57
2022/04/15 01:43:54;;;;;;;2.60;0.98;;;20.60;57.50;;;;;;5034858;28;20088;-57
2022/04/15 01:46:19;;;;;;;2.42;0.98;;;20.60;57.50;;;;;;5036095;28;20041;-57
2022/04/15 01:48:45;;;;;;;1.67;0.80;;;20.50;57.40;;;;;;5035438;28;20057;-57
2022/04/15 01:51:10;;;;;;;2.08;0.80;;;20.50;57.40;;;;;;5035009;28;20041;-57
2022/04/15 01:53:36;;;;;;;1.77;0.80;;;20.50;57.40;;;;;;5035979;28;20136;-57
2022/04/15 01:56:01;;;;;;;3.78;1.05;;;20.50;57.40;;;;;;5035379;28;20056;-58
2022/04/15 01:58:27;;;;;;;2.85;0.98;;;20.50;57.40;;;;;;5034800;28;20041;-58
2022/04/15 02:00:52;;;;;;;2.03;0.82;;;20.50;57.30;;;;;;5035412;28;20041;-57
2022/04/15 02:03:18;;;;;;;2.58;0.90;;;20.50;57.30;;;;;;5035849;28;20115;-57
2022/04/15 02:05:43;;;;;;;2.25;0.80;;;20.50;57.30;;;;;;5034269;28;20037;-57
2022/04/15 02:08:09;;;;;;;2.42;0.90;;;20.50;57.30;;;;;;5035687;28;20501;-58
2022/04/15 02:10:34;;;;;;;2.65;0.90;;;20.50;57.30;;;;;;5035619;28;20045;-57
2022/04/15 02:13:00;;;;;;;2.50;0.60;;;20.50;57.30;;;;;;5034697;28;20049;-57
2022/04/15 02:15:25;;;;;;;2.65;1.00;;;20.50;57.30;;;;;;5035518;28;20540;-57
2022/04/15 02:17:51;;;;;;;1.75;0.73;;;20.50;57.30;;;;;;5035177;28;20045;-57
2022/04/15 02:20:16;;;;;;;2.95;0.82;;;20.40;57.20;;;;;;5034378;28;20103;-57
2022/04/15 02:22:42;;;;;;;2.35;0.70;;;20.40;57.20;;;;;;5035236;28;20081;-57
2022/04/15 02:25:08;;;;;;;1.52;0.75;;;20.40;57.20;;;;;;5035543;28;20044;-57
2022/04/15 02:27:33;;;;;;;1.90;0.70;;;20.40;57.20;;;;;;5034356;28;20128;-57
2022/04/15 02:29:59;;;;;;;2.78;0.70;;;20.40;57.20;;;;;;5034861;28;20065;-57
2022/04/15 02:32:24;;;;;;;2.25;0.70;;;20.40;57.20;;;;;;5035426;28;20049;-57
2022/04/15 02:34:50;;;;;;;2.75;0.93;;;20.40;57.20;;;;;;5033810;28;20085;-57
2022/04/15 02:37:16;;;;;;;1.40;0.60;;;20.40;57.20;;;;;;5035261;28;20041;-57
2022/04/15 02:39:41;;;;;;;2.65;0.90;;;20.40;57.20;;;;;;5034044;28;20049;-57
2022/04/15 02:42:07;;;;;;;3.35;0.90;;;20.40;57.20;;;;;;5034987;28;20124;-57
2022/04/15 02:44:33;;;;;;;3.13;0.80;;;20.40;57.20;;;;;;5033501;28;20087;-57
2022/04/15 02:46:58;;;;;;;1.42;0.60;;;20.40;57.20;;;;;;5033864;28;20045;-57
2022/04/15 02:49:27;;;;;;;1.50;0.80;;;20.40;57.20;;;;;;5034968;28;20482;-57
2022/04/15 02:51:53;;;;;;;1.92;0.80;;;20.40;57.20;;;;;;5034798;28;20144;-57
2022/04/15 02:54:18;;;;;;;3.80;1.20;;;20.30;57.10;;;;;;5034075;28;20045;-58
2022/04/15 02:56:44;;;;;;;2.00;0.80;;;20.30;57.20;;;;;;5034570;28;20472;-58
2022/04/15 02:59:09;;;;;;;1.67;0.60;;;20.30;57.20;;;;;;5034744;28;20049;-57
2022/04/15 03:01:35;;;;;;;1.83;0.70;;;20.30;57.20;;;;;;5034123;28;20490;-58
2022/04/15 03:04:00;;;;;;;2.45;0.93;;;20.30;57.20;;;;;;5034420;28;20045;-57
2022/04/15 03:06:26;;;;;;;1.55;0.88;;;20.30;57.20;;;;;;5034662;28;20049;-57
2022/04/15 03:08:51;;;;;;;1.30;0.65;;;20.30;57.20;;;;;;5033459;28;20045;-57
2022/04/15 03:11:17;;;;;;;2.30;0.68;;;20.30;57.20;;;;;;5034591;28;20100;-57
2022/04/15 03:13:42;;;;;;;0.80;0.50;;;20.30;57.20;;;;;;5034276;28;20048;-57
2022/04/15 03:16:08;;;;;;;2.58;0.80;;;20.30;57.20;;;;;;5033867;28;20477;-57
2022/04/15 03:18:34;;;;;;;3.03;0.90;;;20.30;57.20;;;;;;5034026;28;20057;-57
2022/04/15 03:20:59;;;;;;;1.60;0.90;;;20.30;57.20;;;;;;5032691;28;20046;-57
2022/04/15 03:23:25;;;;;;;2.25;0.93;;;20.20;57.10;;;;;;5033647;28;20473;-57
2022/04/15 03:25:50;;;;;;;2.17;0.68;;;20.20;57.10;;;;;;5032507;28;20045;-57
2022/04/15 03:28:16;;;;;;;3.85;0.80;;;20.30;57.10;;;;;;5033924;28;20041;-57
2022/04/15 03:30:42;;;;;;;1.65;0.75;;;20.20;57.00;;;;;;5032917;28;20049;-57
2022/04/15 03:33:07;;;;;;;1.88;0.75;;;20.30;57.10;;;;;;5034184;28;20396;-57
2022/04/15 03:35:33;;;;;;;1.02;0.60;;;20.30;57.10;;;;;;5034070;28;20148;-58
2022/04/15 03:37:58;;;;;;;1.85;0.80;;;20.30;57.10;;;;;;5033068;28;20085;-57
2022/04/15 03:40:24;;;;;;;2.42;1.02;;;20.30;57.00;;;;;;5033728;28;20504;-57
2022/04/15 03:42:50;;;;;;;1.88;0.65;;;20.30;57.10;;;;;;5033776;28;20041;-58
2022/04/15 03:45:18;;;;;;;2.65;0.70;;;20.30;57.10;;;;;;5033245;28;20049;-58
2022/04/15 03:47:45;;;;;;;;;;;20.30;57.00;;;;;;5033895;28;20408;-57
2022/04/15 03:50:10;;;;;;;2.17;0.68;;;20.30;56.90;;;;;;5032785;28;20360;-58
2022/04/15 03:52:38;;;;;;;1.83;0.60;;;20.30;57.00;;;;;;5033591;28;20073;-58
2022/04/15 03:55:05;;;;;;;1.25;0.60;;;20.30;57.00;;;;;;5033729;28;20030;-58
2022/04/15 03:57:30;;;;;;;1.15;0.63;;;20.30;57.00;;;;;;5032841;28;20057;-57
2022/04/15 03:59:56;;;;;;;1.92;0.77;;;20.30;57.00;;;;;;5032937;28;20125;-57
2022/04/15 04:02:21;;;;;;;1.27;0.60;;;20.30;57.00;;;;;;5033527;28;20049;-57
2022/04/15 04:04:47;;;;;;;3.00;0.63;;;20.30;57.00;;;;;;5032160;28;20477;-57
2022/04/15 04:07:15;;;;;;;1.45;0.60;;;20.30;57.10;;;;;;5032607;28;20045;-58
2022/04/15 04:09:41;;;;;;;1.73;0.70;;;20.30;57.00;;;;;;5032897;28;20053;-57
2022/04/15 04:12:07;;;;;;;1.45;0.65;;;20.30;57.00;;;;;;5032683;28;20064;-58
2022/04/15 04:14:32;;;;;;;1.70;0.85;;;20.30;57.00;;;;;;5033491;28;20048;-58
2022/04/15 04:16:58;;;;;;;1.77;0.70;;;20.40;57.10;;;;;;5033051;28;20619;-58
2022/04/15 04:19:23;;;;;;;2.17;0.70;;;20.40;57.00;;;;;;5032611;28;20485;-57
2022/04/15 04:21:49;;;;;;;0.90;0.50;;;20.40;57.10;;;;;;5032872;28;20045;-57
2022/04/15 04:24:14;;;;;;;1.95;0.60;;;20.40;57.10;;;;;;5033031;28;20096;-57
2022/04/15 04:26:40;;;;;;;1.92;0.77;;;20.40;57.10;;;;;;5032043;28;20055;-57
2022/04/15 04:29:05;;;;;;;1.52;0.65;;;20.40;57.00;;;;;;5033289;28;20050;-57
2022/04/15 04:31:31;;;;;;;1.52;0.70;;;20.40;57.10;;;;;;5032803;28;20057;-57
2022/04/15 04:33:56;;;;;;;1.15;0.60;;;20.40;57.10;;;;;;5031967;28;20546;-57
2022/04/15 04:36:22;;;;;;;2.00;0.70;;;20.40;57.10;;;;;;5032926;28;20084;-57
2022/04/15 04:38:47;;;;;;;1.88;0.60;;;20.40;57.00;;;;;;5032720;28;20053;-57
2022/04/15 04:41:13;;;;;;;3.78;0.80;;;20.40;57.10;;;;;;5031933;28;20049;-57
2022/04/15 04:43:38;;;;;;;1.20;0.75;;;20.50;57.20;;;;;;5031772;28;20049;-57
2022/04/15 04:46:04;;;;;;;3.20;0.90;;;20.50;57.10;;;;;;5033012;28;20484;-57
2022/04/15 04:48:29;;;;;;;1.13;0.70;;;20.50;57.10;;;;;;5031974;28;20049;-57
2022/04/15 04:50:55;;;;;;;1.52;0.88;;;20.50;57.00;;;;;;5031206;28;20081;-57
2022/04/15 04:53:20;;;;;;;2.53;0.50;;;20.50;57.00;;;;;;5032131;28;20037;-57
2022/04/15 04:55:45;;;;;;;1.88;0.68;;;20.50;57.00;;;;;;5032553;28;20052;-57
2022/04/15 04:58:11;;;;;;;1.60;0.63;;;20.50;57.00;;;;;;5032775;28;20096;-57
2022/04/15 05:00:36;;;;;;;0.95;0.70;;;20.50;57.00;;;;;;5032023;28;20385;-57
2022/04/15 05:03:02;;;;;;;1.98;0.70;;;20.50;57.00;;;;;;5032252;28;20128;-57
2022/04/15 05:05:28;;;;;;;1.92;0.68;;;20.50;56.90;;;;;;5032295;28;20045;-57
2022/04/15 05:07:53;;;;;;;1.63;0.60;;;20.50;56.90;;;;;;5031734;28;20128;-57
2022/04/15 05:10:19;;;;;;;2.53;0.60;;;20.50;56.90;;;;;;5034271;28;20052;-57
2022/04/15 05:12:45;;;;;;;1.30;0.60;;;20.50;56.90;;;;;;5036582;28;20092;-57
2022/04/15 05:15:11;;;;;;;1.17;0.55;;;20.50;56.90;;;;;;5036204;28;20051;-57
2022/04/15 05:17:38;;;;;;;2.80;0.70;;;20.50;56.90;;;;;;5036719;28;20050;-57
2022/04/15 05:20:04;;;;;;;2.03;0.65;;;20.50;56.90;;;;;;5036604;28;20045;-57
2022/04/15 05:22:30;;;;;;;0.95;0.55;;;20.50;56.90;;;;;;5035421;28;20476;-57
2022/04/15 05:24:55;;;;;;;1.58;0.70;;;20.50;56.90;;;;;;5036023;28;20572;-57
2022/04/15 05:27:21;;;;;;;0.90;0.52;;;20.50;56.90;;;;;;5036359;28;20049;-57
2022/04/15 05:29:46;;;;;;;1.90;0.50;;;20.50;56.80;;;;;;5035385;28;20109;-57
2022/04/15 05:32:12;;;;;;;1.60;0.50;;;20.50;56.90;;;;;;5036398;28;20089;-57
2022/04/15 05:34:37;;;;;;;1.73;0.60;;;20.60;56.90;;;;;;5036322;28;20131;-57
2022/04/15 05:37:03;;;;;;;1.10;0.60;;;20.60;56.90;;;;;;5034940;28;20045;-57
2022/04/15 05:39:28;;;;;;;1.05;0.60;;;20.60;56.80;;;;;;5036346;28;20136;-57
2022/04/15 05:41:54;;;;;;;1.02;0.65;;;20.60;56.80;;;;;;5035878;28;20419;-57
2022/04/15 05:44:19;;;;;;;2.45;0.70;;;20.60;56.90;;;;;;5035603;28;20056;-57
2022/04/15 05:46:45;;;;;;;1.25;0.60;;;20.60;56.90;;;;;;5035846;28;20038;-57
2022/04/15 05:49:13;;;;;;;2.30;0.50;;;20.60;56.80;;;;;;5036113;28;20790;-57
2022/04/15 05:51:41;;;;;;;1.52;0.68;;;20.60;56.80;;;;;;5034673;28;20481;-57
2022/04/15 05:54:06;;;;;;;1.75;0.70;;;20.60;56.90;;;;;;5035267;28;20038;-57
2022/04/15 05:56:32;;;;;;;2.25;0.80;;;20.70;56.90;;;;;;5035990;28;20083;-57
2022/04/15 05:58:57;;;;;;;2.22;0.68;;;20.60;56.80;;;;;;5034736;28;20064;-56
2022/04/15 06:01:23;;;;;;;2.22;0.85;;;20.70;56.90;;;;;;5035538;28;20091;-57
2022/04/15 06:03:48;;;;;;;2.15;0.80;;;20.70;56.90;;;;;;5034560;28;20042;-57
2022/04/15 06:06:14;;;;;;;2.08;0.60;;;20.70;56.90;;;;;;5035680;28;20413;-57
2022/04/15 06:08:39;;;;;;;1.02;0.60;;;20.70;56.90;;;;;;5035442;28;20057;-57
2022/04/15 06:11:05;;;;;;;2.88;0.80;;;20.70;56.90;;;;;;5034156;28;20056;-57
2022/04/15 06:13:31;;;;;;;2.35;0.60;;;20.70;56.90;;;;;;5035711;28;20056;-58
2022/04/15 06:15:58;;;;;;;2.25;0.65;;;20.70;56.90;;;;;;5034930;28;20370;-57
2022/04/15 06:18:24;;;;;;;2.03;0.65;;;20.70;56.90;;;;;;5034766;28;20049;-57
2022/04/15 06:20:50;;;;;;;1.30;0.70;;;20.70;56.90;;;;;;5035154;28;20045;-57
2022/04/15 06:23:16;;;;;;;3.65;0.80;;;20.80;57.00;;;;;;5034711;28;20037;-58
2022/04/15 06:25:42;;;;;;;2.45;0.68;;;20.80;57.00;;;;;;5033289;28;20045;-57
2022/04/15 06:28:08;;;;;;;2.90;0.80;;;20.80;57.00;;;;;;5035483;28;20045;-57
2022/04/15 06:30:34;;;;;;;1.80;0.65;;;20.80;57.00;;;;;;5034839;28;20060;-57
2022/04/15 06:32:59;;;;;;;2.63;0.65;;;20.80;57.00;;;;;;5034232;28;20053;-58
2022/04/15 06:35:25;;;;;;;2.33;0.60;;;20.80;57.00;;;;;;5034612;28;20071;-57
2022/04/15 06:37:51;;;;;;;1.73;0.70;;;20.80;57.10;;;;;;5034584;28;20049;-58
2022/04/15 06:40:17;;;;;;;1.70;0.60;;;20.80;57.80;;;;;;5034516;28;20133;-58
2022/04/15 06:42:42;;;;;;;2.45;0.60;;;20.80;57.20;;;;;;5034865;28;20128;-59
2022/04/15 06:45:09;;;;;;;2.15;0.70;;;20.90;57.40;;;;;;5049461;28;20042;-58
2022/04/15 06:47:34;;;;;;;2.60;0.80;;;20.90;57.40;;;;;;5034125;28;20055;-58
2022/04/15 06:50:00;;;;;;;2.78;0.80;;;20.90;57.40;;;;;;5034694;28;20420;-58
2022/04/15 06:52:26;;;;;;;2.63;0.70;;;20.90;57.50;;;;;;5034797;28;20492;-58
2022/04/15 06:54:51;;;;;;;1.67;0.65;;;20.90;57.50;;;;;;5033867;28;20050;-58
2022/04/15 06:57:16;;;;;;;3.40;0.50;;;20.90;58.30;;;;;;5034875;28;20049;-58
2022/04/15 06:59:42;;;;;;;2.72;0.70;;;20.90;57.70;;;;;;5034658;28;20091;-57
2022/04/15 07:02:07;;;;;;;1.73;0.60;;;21.00;57.90;;;;;;5033776;28;20495;-58
2022/04/15 07:04:34;;;;;;;2.95;0.70;;;21.00;57.90;;;;;;5034358;28;20054;-57
2022/04/15 07:06:59;;;;;;;1.73;0.82;;;21.00;57.90;;;;;;5033370;28;20370;-58
2022/04/15 07:09:25;;;;;;;2.35;0.70;;;21.00;58.00;;;;;;5032855;28;20041;-57
2022/04/15 07:11:51;;;;;;;2.13;0.70;;;21.00;58.00;;;;;;5034464;28;20041;-57
2022/04/15 07:14:17;;;;;;;2.47;0.60;;;21.00;58.10;;;;;;5033182;28;20896;-58
2022/04/15 07:16:42;;;;;;;1.27;0.60;;;21.00;58.20;;;;;;5034208;28;20057;-57
2022/04/15 07:19:08;;;;;;;2.10;0.85;;;21.00;58.20;;;;;;5034238;28;20050;-57
2022/04/15 07:21:34;;;;;;;1.80;0.65;;;21.00;58.20;;;;;;5033554;28;20045;-58
2022/04/15 07:24:00;;;;;;;1.20;0.50;;;21.00;58.30;;;;;;5033904;28;20041;-58
2022/04/15 07:26:25;;;;;;;0.63;0.60;;;21.10;58.40;;;;;;5033378;28;20095;-58
2022/04/15 07:28:51;;;;;;;3.03;0.80;;;21.10;58.30;;;;;;5033380;28;20095;-58
2022/04/15 07:31:16;;;;;;;3.33;0.73;;;21.10;58.20;;;;;;5034002;28;20049;-58
2022/04/15 07:33:42;;;;;;;4.90;1.00;;;21.10;58.20;;;;;;5032567;28;20500;-58
2022/04/15 07:38:52;;;;;;;4.43;0.50;;;21.10;58.30;;;;;;5033584;28;20088;-57
2022/04/15 07:41:17;;;;;;;2.92;0.70;;;21.10;58.30;;;;;;5033824;28;20185;-58
2022/04/15 07:43:43;;;;;;;1.35;0.63;;;21.10;58.30;;;;;;5032680;28;20485;-57
2022/04/15 07:46:08;;;;;;;2.72;0.80;;;21.10;58.30;;;;;;5033829;28;20049;-57
2022/04/15 07:48:34;;;;;;;5.22;0.63;;;21.10;58.30;;;;;;5034088;28;20075;-57
2022/04/15 07:50:59;;;;;;;4.75;0.60;;;21.10;58.30;;;;;;5032656;28;20077;-57
2022/04/15 07:53:25;;;;;;;2.85;0.50;;;21.20;58.40;;;;;;5033959;28;20037;-57
2022/04/15 07:55:50;;;;;;;2.83;0.80;;;21.20;58.40;;;;;;5033453;28;20125;-57
2022/04/15 07:58:18;;;;;;;2.58;0.73;;;21.20;58.40;;;;;;5032845;28;20045;-57
2022/04/15 08:00:43;;;;;;;2.55;1.02;;;21.20;58.50;;;;;;5033522;28;20088;-57
2022/04/15 08:03:09;;;;;;;2.08;0.65;;;21.20;58.40;;;;;;5033549;28;20515;-57
2022/04/15 08:05:34;;;;;;;1.23;0.50;;;21.20;58.40;;;;;;5032700;28;20044;-57
2022/04/15 08:08:00;;;;;;;0.73;0.55;;;21.20;58.40;;;;;;5033434;28;20049;-57
2022/04/15 08:10:25;;;;;;;2.65;0.75;;;21.20;58.40;;;;;;5031465;28;20044;-57
2022/04/15 08:12:51;;;;;;;4.65;0.80;;;21.20;58.40;;;;;;5032022;28;20396;-57
2022/04/15 08:15:17;;;;;;;2.13;0.60;;;21.20;58.40;;;;;;5033429;28;20100;-57
2022/04/15 08:17:42;;;;;;;2.28;0.60;;;21.20;58.50;;;;;;5032366;28;20473;-58
2022/04/15 08:20:08;;;;;;;1.75;0.77;;;21.30;58.50;;;;;;5032872;28;20465;-57
2022/04/15 08:22:37;;;;;;;0.95;0.70;;;21.20;58.50;;;;;;5031463;28;20464;-57
2022/04/15 08:25:03;;;;;;;3.60;0.75;;;21.30;58.50;;;;;;5031683;28;20042;-58
2022/04/15 08:27:29;;;;;;;1.83;0.80;;;21.30;58.50;;;;;;5033080;28;20064;-57
2022/04/15 08:29:54;;;;;;;4.75;0.70;;;21.30;58.50;;;;;;5032547;28;20505;-57
2022/04/15 08:32:20;;;;;;;3.97;0.77;;;21.30;58.50;;;;;;5032631;28;20046;-57
2022/04/15 08:34:46;;;;;;;2.72;0.80;;;21.30;58.50;;;;;;5032753;28;20043;-57
2022/04/15 08:37:13;;;;;;;3.40;0.95;;;21.30;58.50;;;;;;5033066;28;20051;-57
2022/04/15 08:39:39;;;;;;;2.78;0.80;;;21.30;58.60;;;;;;5032003;28;20551;-57
2022/04/15 08:42:06;;;;;;;7.80;1.05;;;21.30;58.50;;;;;;5033148;28;20496;-57
2022/04/15 08:44:32;;;;;;;17.40;1.63;;;21.30;58.40;;;;;;5048105;28;20057;-58
2022/04/15 08:46:58;;;;;;;1.55;0.77;;;21.30;58.30;;;;;;5031840;28;20510;-57
2022/04/15 08:49:23;;;;;;;3.75;0.90;;;21.30;58.30;;;;;;5032470;28;20136;-57
2022/04/15 08:51:50;;;;;;;2.60;0.80;;;21.30;58.30;;;;;;5047568;28;20513;-57
2022/04/15 08:54:15;;;;;;;5.50;1.00;;;21.30;58.30;;;;;;5031976;28;20045;-57
2022/04/15 08:56:42;;;;;;;4.20;0.93;;;21.30;58.50;;;;;;5032310;28;20075;-57
2022/04/15 08:59:07;;;;;;;3.10;1.13;;;21.40;58.50;;;;;;5032671;28;20073;-57
2022/04/15 09:01:33;;;;;;;2.78;0.70;;;21.40;58.50;;;;;;5047174;28;20076;-57
2022/04/15 09:03:58;;;;;;;7.68;1.73;;;21.30;58.40;;;;;;5028901;28;20049;-58
2022/04/15 09:06:28;;;;;;;3.85;1.50;;;21.40;58.40;;;;;;5018298;28;20482;-57
2022/04/15 09:09:03;;;;;;;12.10;2.35;;;21.30;58.30;;;;;;5012559;28;20049;-57
2022/04/15 09:11:33;;;;;;;5.47;2.33;;;21.40;58.40;;;;;;5013044;28;20547;-58
2022/04/15 09:14:02;;;;;;;9.18;2.50;;;21.40;58.40;;;;;;5011732;28;20058;-57
2022/04/15 09:16:29;;;;;;;6.72;2.33;;;21.40;58.40;;;;;;5012640;28;20526;-57
2022/04/15 09:18:54;;;;;;;9.98;3.45;;;21.40;58.40;;;;;;5012032;28;20064;-57
2022/04/15 09:21:21;;;;;;;7.68;2.83;;;21.40;58.30;;;;;;5012126;28;20402;-57
2022/04/15 09:23:51;;;;;;;6.03;2.47;;;21.40;58.20;;;;;;5012475;28;20045;-57
2022/04/15 09:26:18;;;;;;;7.65;3.10;;;21.40;58.10;;;;;;5012906;28;20046;-58
2022/04/15 09:28:43;;;;;;;7.40;3.15;;;21.40;58.10;;;;;;5011845;28;20073;-58
2022/04/15 09:31:13;;;;;;;10.63;3.20;;;21.40;58.20;;;;;;5012377;28;20061;-57
2022/04/15 09:33:48;;;;;;;9.52;2.70;;;21.40;58.20;;;;;;5026542;28;20128;-58
2022/04/15 09:36:28;;;;;;;9.32;2.85;;;21.40;58.30;;;;;;5029019;28;20044;-57
2022/04/15 09:39:03;;;;;;;7.57;3.17;;;21.40;58.40;;;;;;5022948;28;20084;-58
2022/04/15 09:41:29;;;;;;;9.18;3.08;;;21.40;58.40;;;;;;5021837;28;20418;-58
2022/04/15 09:43:56;;;;;;;7.57;2.85;;;21.40;58.40;;;;;;5030711;28;20112;-58
2022/04/15 09:46:22;;;;;;;9.07;2.75;;;21.40;58.40;;;;;;5031436;28;20045;-57
2022/04/15 09:49:17;;;;;;;8.23;2.70;;;21.50;58.50;;;;;;5030621;28;20048;-57
2022/04/15 09:51:47;;;;;;;6.68;2.55;;;21.40;58.40;;;;;;5024051;28;20053;-57
2022/04/15 09:54:23;;;;;;;10.90;2.70;;;21.40;58.40;;;;;;5022662;28;20113;-58
2022/04/15 09:56:49;;;;;;;10.02;2.67;;;21.50;58.50;;;;;;5021910;28;20096;-57
2022/04/15 09:59:15;;;;;;;8.30;2.97;;;21.40;58.40;;;;;;5029357;28;20059;-59
2022/04/15 10:01:45;;;;;;;10.05;3.45;;;21.40;58.30;;;;;;5033051;28;20033;-57
2022/04/15 10:04:11;;;;;;;6.82;2.50;;;21.50;58.30;;;;;;5030498;28;20037;-57
2022/04/15 10:06:38;;;;;;;8.20;3.05;;;21.50;58.30;;;;;;5026063;28;20080;-57
2022/04/15 10:09:06;;;;;;;6.80;2.50;;;21.50;58.40;;;;;;5015759;28;20137;-57
2022/04/15 10:11:32;;;;;;;10.55;2.85;;;21.50;58.40;;;;;;5013765;28;20053;-57
2022/04/15 10:13:58;;;;;;;8.00;2.80;;;21.50;58.40;;;;;;5021854;28;20073;-58
2022/04/15 10:16:23;;;;;;;7.53;2.42;;;21.50;58.40;;;;;;5024713;28;20092;-57
2022/04/15 10:18:49;;;;;;;7.18;2.75;;;21.50;58.40;;;;;;5022778;28;20473;-57
2022/04/15 10:21:14;;;;;;;8.23;2.65;;;21.50;58.30;;;;;;5024331;28;20084;-57
2022/04/15 10:23:40;;;;;;;7.30;2.58;;;21.50;58.30;;;;;;5023974;28;20042;-57
2022/04/15 10:26:06;;;;;;;6.78;2.50;;;21.50;58.40;;;;;;5023699;28;20029;-57
2022/04/15 10:28:39;;;;;;;5.93;2.30;;;21.50;58.50;;;;;;5024113;28;20054;-58
2022/04/15 10:31:11;;;;;;;6.88;2.58;;;21.50;58.50;;;;;;5023312;28;20049;-57
2022/04/15 10:33:39;;;;;;;7.80;2.83;;;21.50;58.30;;;;;;5032163;28;20054;-57
2022/04/15 10:36:31;;;;;;;5.55;2.60;;;21.50;58.20;;;;;;5035032;28;20048;-57
2022/04/15 10:39:03;;;;;;;6.03;1.90;;;21.50;58.20;;;;;;5046791;28;20095;-57
2022/04/15 10:41:41;;;;;;;7.15;2.80;;;21.50;58.20;;;;;;5034544;28;20044;-57
2022/04/15 10:44:06;;;;;;;6.13;2.17;;;21.50;58.20;;;;;;5034181;28;20148;-56
2022/04/15 10:46:35;;;;;;;6.70;2.60;;;21.50;58.20;;;;;;5034244;28;20540;-56
2022/04/15 10:49:01;;;;;;;5.82;2.50;;;21.50;58.20;;;;;;5034703;28;20042;-56
2022/04/15 10:51:30;;;;;;;5.90;2.40;;;21.50;58.20;;;;;;5033689;28;20037;-56
2022/04/15 10:54:16;;;;;;;6.78;2.47;;;21.50;58.20;;;;;;5033593;28;20063;-56
2022/04/15 10:57:01;;;;;;;6.80;2.20;;;21.50;58.20;;;;;;5033145;28;20042;-56
2022/04/15 11:02:21;;;;;;;5.97;2.35;;;21.40;58.20;;;;;;5024833;28;20057;-56
2022/04/15 11:04:51;;;;;;;6.88;2.58;;;21.50;58.20;;;;;;5025181;28;20041;-56
2022/04/15 11:07:27;;;;;;;5.82;2.08;;;21.50;58.20;;;;;;5023123;28;20146;-56
2022/04/15 11:09:53;;;;;;;8.65;2.53;;;21.50;58.30;;;;;;5023599;28;20052;-56
2022/04/15 11:12:45;;;;;;;9.27;2.67;;;21.40;58.20;;;;;;5024261;28;20045;-56
2022/04/15 11:15:12;;;;;;;7.47;2.72;;;21.40;58.20;;;;;;5021033;28;20041;-56
2022/04/15 11:17:47;;;;;;;9.77;3.03;;;21.40;58.30;;;;;;5024349;28;20049;-57
2022/04/15 11:20:13;;;;;;;9.35;3.40;;;21.40;58.30;;;;;;5022494;28;20038;-57
2022/04/15 11:22:39;;;;;;;5.82;2.60;;;21.40;58.40;;;;;;5023697;28;20042;-57
2022/04/15 11:25:09;;;;;;;7.70;3.15;;;21.40;58.50;;;;;;5024883;28;20553;-57
2022/04/15 11:27:39;;;;;;;10.02;3.55;;;21.40;58.50;;;;;;5022220;28;20046;-57
2022/04/15 11:30:11;;;;;;;9.50;3.35;;;21.40;58.60;;;;;;5022836;28;20067;-57
2022/04/15 11:32:54;;;;;;;10.98;3.60;;;21.40;58.60;;;;;;5023592;28;20405;-57
2022/04/15 11:35:36;;;;;;;8.73;3.08;;;21.40;58.60;;;;;;5023383;28;20038;-57
2022/04/15 11:38:07;;;;;;;9.73;3.22;;;21.40;58.60;;;;;;5024051;28;20129;-58
2022/04/15 11:40:34;;;;;;;7.93;3.92;;;21.40;58.60;;;;;;5022973;28;20056;-58
2022/04/15 11:43:01;;;;;;;9.60;3.80;;;21.40;58.70;;;;;;5021344;28;20053;-58
2022/04/15 11:45:53;;;;;;;7.07;3.05;;;21.40;58.70;;;;;;5024744;28;20044;-58
2022/04/15 11:48:20;;;;;;;8.05;3.05;;;21.30;58.50;;;;;;5021734;28;20057;-59
2022/04/15 11:50:46;;;;;;;8.47;3.30;;;21.40;58.60;;;;;;5022283;28;20136;-59
2022/04/15 11:53:13;;;;;;;6.95;3.42;;;21.30;58.60;;;;;;5024387;28;20381;-59
2022/04/15 11:55:58;;;;;;;8.70;3.17;;;21.30;58.60;;;;;;5022770;28;20116;-58
2022/04/15 11:58:25;;;;;;;9.45;3.50;;;21.40;58.70;;;;;;5024064;28;20045;-58
2022/04/15 12:00:55;;;;;;;7.22;3.40;;;21.30;58.60;;;;;;5021771;28;20450;-58
2022/04/15 12:03:21;;;;;;;6.78;3.17;;;21.40;58.70;;;;;;5022003;28;20037;-58
2022/04/15 12:05:47;;;;;;;9.43;3.00;;;21.40;58.70;;;;;;5032630;28;20048;-58
2022/04/15 12:08:15;;;;;;;8.68;3.83;;;21.40;58.60;;;;;;5033401;28;20056;-58
2022/04/15 12:10:41;;;;;;;8.55;2.95;;;21.30;58.50;;;;;;5032491;28;20041;-58
2022/04/15 12:13:06;;;;;;;8.27;3.08;;;21.30;58.30;;;;;;5032070;28;20053;-59
2022/04/15 12:15:32;;;;;;;7.00;3.20;;;21.30;58.30;;;;;;5032031;28;20050;-59
2022/04/15 12:17:58;;;;;;;6.63;2.78;;;21.30;58.20;;;;;;5032433;28;20128;-59
2022/04/15 12:20:24;;;;;;;10.52;3.30;;;21.30;58.10;;;;;;5016470;28;20125;-58
2022/04/15 12:22:49;;;;;;;8.40;3.10;;;21.30;58.00;;;;;;5013193;28;20042;-59
2022/04/15 12:25:17;;;;;;;7.72;3.30;;;21.30;58.00;;;;;;5011551;28;20046;-58
2022/04/15 12:27:44;;;;;;;5.50;2.88;;;21.30;57.90;;;;;;5013004;28;20049;-59
2022/04/15 12:30:11;;;;;;;6.40;2.97;;;21.30;58.00;;;;;;5013234;28;20085;-63
2022/04/15 12:32:38;;;;;;;7.90;2.88;;;21.30;58.00;;;;;;5012724;28;20045;-57
2022/04/15 12:35:11;;;;;;;6.35;2.72;;;21.30;58.00;;;;;;5013202;28;20053;-58
2022/04/15 12:37:44;;;;;;;7.63;3.03;;;21.30;58.00;;;;;;5020147;28;20503;-58
2022/04/15 12:40:19;;;;;;;6.63;2.70;;;21.30;57.90;;;;;;5023744;28;20046;-59
2022/04/15 12:42:46;;;;;;;7.10;2.97;;;21.30;57.90;;;;;;5022441;28;20041;-59
2022/04/15 12:45:16;;;;;;;6.88;2.83;;;21.30;58.00;;;;;;5023837;28;20717;-59
2022/04/15 12:47:42;;;;;;;6.13;3.05;;;21.30;58.10;;;;;;5022877;28;20051;-58
2022/04/15 12:50:23;;;;;;;8.48;3.65;;;21.30;58.10;;;;;;5023161;28;20038;-58
2022/04/15 12:52:55;;;;;;;7.35;3.33;;;21.30;58.10;;;;;;5022228;28;20050;-58